Terminal Aerodrome Forecast
Issued by NWS Jacksonville, FL

Home | Current Version | Previous Version | Text Only | Print | Product List | Glossary On
Versions: 1 2 3 4 5 6 7 8 9 10 11 12 13 14 15 16 17 18 19 20 21 22 23 24 25 26 27 28 29 30 31 32 33 34 35 36 37
858
FTUS42 KJAX 250236 AAC
TAFGNV
TAF AMD
KGNV 250236Z 2503/2524 22007KT P6SM VCSH BKN015 OVC020
      WS020/23040KT
     FM250600 23010KT P6SM SCT025 BKN040
     FM251100 26012KT P6SM SCT040 SCT250
     FM251500 27014G22KT P6SM FEW250
     FM252200 27012KT P6SM SKC=

USA.gov is the U.S. government's official web portal to all federal, state and local government web resources and services.